createdAt,value
2022-09-20T00:02:25.640Z,0
2022-09-20T00:03:28.559Z,0
2022-09-20T00:05:04.206Z,0
2022-09-20T00:06:07.079Z,0
2022-09-20T00:07:09.730Z,0
2022-09-20T00:08:44.515Z,0
2022-09-20T00:09:47.424Z,0
2022-09-20T00:10:50.160Z,0
2022-09-20T00:12:24.845Z,0
2022-09-20T00:13:27.939Z,0
2022-09-20T00:14:30.732Z,0
2022-09-20T00:16:05.692Z,0
2022-09-20T00:17:09.297Z,0
2022-09-20T00:18:12.403Z,0
2022-09-20T00:19:47.187Z,0
2022-09-20T00:20:49.870Z,0
2022-09-20T00:21:52.937Z,0
2022-09-20T00:23:27.580Z,0
2022-09-20T00:24:31.088Z,0
2022-09-20T00:25:33.812Z,0
2022-09-20T00:27:08.524Z,0
2022-09-20T00:28:11.473Z,0
2022-09-20T00:29:14.268Z,0
2022-09-20T00:30:49.282Z,0
2022-09-20T00:31:52.758Z,0
2022-09-20T00:32:55.615Z,0
2022-09-20T00:34:30.563Z,0
2022-09-20T00:35:33.457Z,0
2022-09-20T00:36:36.396Z,0
2022-09-20T00:38:11.054Z,0
2022-09-20T00:39:13.979Z,0
2022-09-20T00:40:17.144Z,0
2022-09-20T00:41:51.990Z,0
2022-09-20T00:42:54.792Z,0
2022-09-20T00:43:57.742Z,0
2022-09-20T00:45:32.319Z,0
2022-09-20T00:46:35.650Z,0
2022-09-20T00:47:38.440Z,0
2022-09-20T00:49:13.475Z,0
2022-09-20T00:50:16.305Z,0
2022-09-20T00:51:19.251Z,0
2022-09-20T00:52:54.051Z,0
2022-09-20T00:53:56.939Z,0
2022-09-20T00:54:59.848Z,0
2022-09-20T00:56:34.439Z,0
2022-09-20T00:57:37.117Z,0
2022-09-20T00:58:39.908Z,0
2022-09-20T01:00:39.929Z,0
2022-09-20T01:01:43.492Z,0
2022-09-20T01:02:46.849Z,0
2022-09-20T01:04:21.743Z,0
2022-09-20T01:05:24.499Z,0
2022-09-20T01:06:27.390Z,0
2022-09-20T01:08:02.212Z,0
2022-09-20T01:09:05.162Z,0
2022-09-20T01:10:08.105Z,0
2022-09-20T01:11:42.644Z,0
2022-09-20T01:12:45.551Z,0
2022-09-20T01:13:48.601Z,0
2022-09-20T01:15:23.130Z,0
2022-09-20T01:16:26.787Z,0
2022-09-20T01:17:29.945Z,0
2022-09-20T01:19:04.442Z,0
2022-09-20T01:20:07.174Z,0
2022-09-20T01:21:10.054Z,0
2022-09-20T01:22:44.898Z,0
2022-09-20T01:23:47.584Z,0
2022-09-20T01:24:50.541Z,0
2022-09-20T01:26:25.231Z,0
2022-09-20T01:27:27.913Z,0
2022-09-20T01:28:30.919Z,0
2022-09-20T01:30:05.543Z,0
2022-09-20T01:31:08.283Z,0
2022-09-20T01:32:11.581Z,0
2022-09-20T01:33:46.253Z,0
2022-09-20T01:34:49.244Z,0
2022-09-20T01:35:52.176Z,0
2022-09-20T01:37:27.083Z,0
2022-09-20T01:38:29.928Z,0
2022-09-20T01:39:32.932Z,0
2022-09-20T01:41:07.983Z,0
2022-09-20T01:42:11.123Z,0
2022-09-20T01:43:14.014Z,0
2022-09-20T01:44:48.920Z,0
2022-09-20T01:45:52.555Z,0
2022-09-20T01:46:55.302Z,0
2022-09-20T01:48:30.273Z,0
2022-09-20T01:49:33.534Z,0
2022-09-20T01:50:36.370Z,0
2022-09-20T01:52:10.864Z,0
2022-09-20T01:53:13.832Z,0
2022-09-20T01:54:16.940Z,0
2022-09-20T01:55:51.915Z,0
2022-09-20T01:56:54.771Z,0
2022-09-20T01:57:57.800Z,0
2022-09-20T01:59:47.927Z,0
2022-09-20T02:00:40.592Z,0
2022-09-20T02:01:44.215Z,0
2022-09-20T02:02:47.724Z,0
2022-09-20T02:04:22.323Z,0
2022-09-20T02:05:25.328Z,0
2022-09-20T02:06:28.128Z,0
2022-09-20T02:08:03.038Z,0
2022-09-20T02:09:06.193Z,0
2022-09-20T02:10:09.043Z,0
2022-09-20T02:11:43.722Z,0
2022-09-20T02:12:50.579Z,0
2022-09-20T02:13:53.362Z,0
2022-09-20T02:15:28.017Z,0
2022-09-20T02:16:31.503Z,0
2022-09-20T02:17:34.489Z,0
2022-09-20T02:19:09.204Z,0
2022-09-20T02:20:12.385Z,0
2022-09-20T02:21:15.408Z,0
2022-09-20T02:22:50.074Z,0
2022-09-20T02:23:52.931Z,0
2022-09-20T02:24:55.964Z,0
2022-09-20T02:26:30.766Z,0
2022-09-20T02:27:33.749Z,0
2022-09-20T02:28:36.872Z,0
2022-09-20T02:30:11.807Z,0
2022-09-20T02:31:14.683Z,0
2022-09-20T02:32:18.061Z,0
2022-09-20T02:33:52.833Z,0
2022-09-20T02:34:55.627Z,0
2022-09-20T02:35:58.234Z,0
2022-09-20T02:37:33.026Z,0
2022-09-20T02:38:35.832Z,0
2022-09-20T02:39:38.536Z,0
2022-09-20T02:41:13.278Z,0
2022-09-20T02:42:16.121Z,0
2022-09-20T02:43:18.745Z,0
2022-09-20T02:44:53.591Z,0
2022-09-20T02:45:56.941Z,0
2022-09-20T02:47:00.044Z,0
2022-09-20T02:48:34.673Z,0
2022-09-20T02:49:37.499Z,0
2022-09-20T02:50:40.446Z,0
2022-09-20T02:52:15.073Z,0
2022-09-20T02:53:17.907Z,0
2022-09-20T02:54:20.909Z,0
2022-09-20T02:55:55.575Z,0
2022-09-20T02:56:58.621Z,0
2022-09-20T02:58:01.483Z,0
2022-09-20T02:59:36.436Z,0
2022-09-20T03:00:40.388Z,0
2022-09-20T03:01:43.728Z,0
2022-09-20T03:02:47.123Z,0
2022-09-20T03:04:21.772Z,0
2022-09-20T03:05:24.713Z,0
2022-09-20T03:06:27.667Z,0
2022-09-20T03:08:03.185Z,0
2022-09-20T03:09:06.304Z,0
2022-09-20T03:10:09.175Z,0
2022-09-20T03:11:43.976Z,0
2022-09-20T03:12:46.777Z,0
2022-09-20T03:13:49.795Z,0
2022-09-20T03:15:24.516Z,0
2022-09-20T03:16:27.634Z,0
2022-09-20T03:17:30.659Z,0
2022-09-20T03:19:05.279Z,0
2022-09-20T03:20:08.050Z,0
2022-09-20T03:21:11.007Z,0
2022-09-20T03:22:45.720Z,0
2022-09-20T03:23:48.838Z,0
2022-09-20T03:24:51.863Z,0
2022-09-20T03:26:26.845Z,0
2022-09-20T03:27:29.934Z,0
2022-09-20T03:28:32.838Z,0
2022-09-20T03:30:07.744Z,0
2022-09-20T03:31:10.854Z,0
2022-09-20T03:32:14.348Z,0
2022-09-20T03:33:49.001Z,0
2022-09-20T03:34:52.033Z,0
2022-09-20T03:35:54.889Z,0
2022-09-20T03:37:29.747Z,0
2022-09-20T03:38:32.513Z,0
2022-09-20T03:39:35.665Z,0
2022-09-20T03:41:14.888Z,0
2022-09-20T03:42:17.596Z,0
2022-09-20T03:43:20.535Z,0
2022-09-20T03:44:55.017Z,0
2022-09-20T03:45:58.342Z,0
2022-09-20T03:47:01.219Z,0
2022-09-20T03:48:35.901Z,0
2022-09-20T03:49:38.787Z,0
2022-09-20T03:50:41.845Z,0
2022-09-20T03:52:16.376Z,0
2022-09-20T03:53:19.104Z,0
2022-09-20T03:54:21.964Z,0
2022-09-20T03:55:56.896Z,0
2022-09-20T03:56:59.741Z,0
2022-09-20T03:58:05.764Z,0
2022-09-20T03:59:43.603Z,0
2022-09-20T04:00:39.982Z,0
2022-09-20T04:01:43.419Z,0
2022-09-20T04:02:46.829Z,0
2022-09-20T04:04:21.732Z,0
2022-09-20T04:06:10.998Z,0
2022-09-20T04:07:14.420Z,0
2022-09-20T04:08:17.613Z,0
2022-09-20T04:09:55.456Z,0
2022-09-20T04:10:58.558Z,0
2022-09-20T04:12:01.812Z,0
2022-09-20T04:13:37.515Z,0
2022-09-20T04:14:40.869Z,0
2022-09-20T04:15:43.895Z,0
2022-09-20T04:17:19.481Z,0
2022-09-20T04:18:22.386Z,0
2022-09-20T04:19:29.643Z,0
2022-09-20T04:21:07.308Z,0
2022-09-20T04:22:10.247Z,0
2022-09-20T04:23:13.330Z,0
2022-09-20T04:24:48.356Z,0
2022-09-20T04:25:55.554Z,0
2022-09-20T04:26:58.620Z,0
2022-09-20T04:28:33.292Z,0
2022-09-20T04:29:36.551Z,0
2022-09-20T04:30:39.308Z,0
2022-09-20T04:32:17.629Z,0
2022-09-20T04:33:20.538Z,0
2022-09-20T04:34:23.422Z,0
2022-09-20T04:35:58.112Z,0
2022-09-20T04:37:01.051Z,0
2022-09-20T04:38:04.164Z,0
2022-09-20T04:39:38.930Z,0
2022-09-20T04:40:42.807Z,0
2022-09-20T04:41:45.749Z,0
2022-09-20T04:43:20.735Z,0
2022-09-20T04:44:24.125Z,0
2022-09-20T04:45:27.381Z,0
2022-09-20T04:47:07.369Z,0
2022-09-20T04:48:10.338Z,0
2022-09-20T04:49:13.442Z,0
2022-09-20T04:50:48.668Z,0
2022-09-20T04:51:51.698Z,0
2022-09-20T04:52:54.939Z,0
2022-09-20T04:54:29.805Z,0
2022-09-20T04:55:32.540Z,0
2022-09-20T04:56:35.420Z,0
2022-09-20T04:58:10.634Z,0
2022-09-20T04:59:13.914Z,0
2022-09-20T05:00:40.233Z,0
2022-09-20T05:01:49.598Z,0
2022-09-20T05:02:53.328Z,0
2022-09-20T05:04:28.083Z,0
2022-09-20T05:05:31.261Z,0
2022-09-20T05:06:34.065Z,0
2022-09-20T05:08:09.019Z,0
2022-09-20T05:09:16.351Z,0
2022-09-20T05:10:19.235Z,0
2022-09-20T05:11:54.365Z,0
2022-09-20T05:12:57.363Z,0
2022-09-20T05:14:00.281Z,0
2022-09-20T05:15:35.322Z,0
2022-09-20T05:16:40.801Z,0
2022-09-20T05:17:46.873Z,0
2022-09-20T05:19:22.192Z,0
2022-09-20T05:20:25.363Z,0
2022-09-20T05:21:28.469Z,0
2022-09-20T05:23:03.530Z,0
2022-09-20T05:24:08.462Z,0
2022-09-20T05:25:13.839Z,0
2022-09-20T05:26:48.896Z,0
2022-09-20T05:27:52.011Z,0
2022-09-20T05:28:54.918Z,0
2022-09-20T05:30:33.217Z,0
2022-09-20T05:31:36.518Z,0
2022-09-20T05:32:39.607Z,0
2022-09-20T05:34:14.111Z,0
2022-09-20T05:35:17.061Z,0
2022-09-20T05:36:20.098Z,0
2022-09-20T05:37:54.749Z,0
2022-09-20T05:38:59.039Z,0
2022-09-20T05:40:04.959Z,0
2022-09-20T05:41:40.120Z,0
2022-09-20T05:42:43.462Z,0
2022-09-20T05:43:46.614Z,0
2022-09-20T05:45:21.649Z,0
2022-09-20T05:46:25.016Z,0
2022-09-20T05:47:28.073Z,0
2022-09-20T05:49:03.141Z,0
2022-09-20T05:50:06.068Z,0
2022-09-20T05:51:15.184Z,0
2022-09-20T05:52:49.890Z,0
2022-09-20T05:53:52.892Z,0
2022-09-20T05:54:55.876Z,0
2022-09-20T05:56:30.606Z,0
2022-09-20T05:57:33.497Z,0
2022-09-20T05:58:36.849Z,0.435
2022-09-20T06:00:40.746Z,0
2022-09-20T06:01:44.176Z,0
2022-09-20T06:02:47.462Z,0
2022-09-20T06:04:21.968Z,0
2022-09-20T06:05:24.960Z,0
2022-09-20T06:06:32.304Z,0.435
2022-09-20T06:08:07.732Z,0.435
2022-09-20T06:09:10.635Z,0
2022-09-20T06:10:13.708Z,0.435
2022-09-20T06:11:52.039Z,0.435
2022-09-20T06:12:55.151Z,0.435
2022-09-20T06:13:58.269Z,0.435
2022-09-20T06:15:33.220Z,0.435
2022-09-20T06:16:36.796Z,0
2022-09-20T06:17:39.910Z,0.435
2022-09-20T06:19:14.757Z,0.435
2022-09-20T06:20:17.779Z,0.435
2022-09-20T06:21:20.777Z,0.435
2022-09-20T06:22:55.594Z,0.435
2022-09-20T06:23:58.564Z,0.435
2022-09-20T06:25:01.707Z,0.435
2022-09-20T06:26:36.783Z,0.585
2022-09-20T06:27:39.697Z,0.435
2022-09-20T06:28:42.809Z,0.435
2022-09-20T06:30:17.885Z,0.585
2022-09-20T06:31:21.332Z,0.585
2022-09-20T06:32:24.572Z,0.585
2022-09-20T06:33:59.391Z,0.585
2022-09-20T06:35:02.307Z,0.585
2022-09-20T06:36:10.481Z,0.585
2022-09-20T06:37:45.731Z,0.585
2022-09-20T06:38:48.979Z,0.585
2022-09-20T06:39:51.946Z,0.585
2022-09-20T06:41:27.080Z,0.585
2022-09-20T06:42:33.063Z,0.585
2022-09-20T06:43:35.954Z,0.735
2022-09-20T06:45:11.371Z,0.585
2022-09-20T06:46:14.819Z,0.885
2022-09-20T06:47:17.726Z,0.885
2022-09-20T06:48:53.145Z,0.885
2022-09-20T06:49:56.181Z,0.735
2022-09-20T06:50:59.506Z,0.735
2022-09-20T06:52:34.280Z,0.585
2022-09-20T06:53:37.142Z,0.585
2022-09-20T06:54:40.064Z,0.435
2022-09-20T06:56:15.200Z,0.585
2022-09-20T06:57:18.017Z,0.435
2022-09-20T06:58:21.071Z,0.435
2022-09-20T06:59:56.166Z,0.435
2022-09-20T07:00:40.165Z,0.435
2022-09-20T07:01:57.805Z,0.585
2022-09-20T07:03:00.803Z,0.585
2022-09-20T07:04:35.834Z,0.585
2022-09-20T07:05:38.730Z,0.585
2022-09-20T07:06:41.698Z,0.585
2022-09-20T07:08:23.010Z,0.585
2022-09-20T07:09:26.087Z,0.885
2022-09-20T07:10:28.820Z,0.735
2022-09-20T07:12:03.618Z,1.02
2022-09-20T07:13:06.684Z,0.885
2022-09-20T07:14:09.669Z,1.02
2022-09-20T07:15:44.599Z,1.02
2022-09-20T07:16:48.203Z,1.02
2022-09-20T07:17:51.435Z,1.17
2022-09-20T07:19:26.309Z,1.17
2022-09-20T07:20:32.873Z,1.32
2022-09-20T07:21:35.741Z,1.32
2022-09-20T07:23:10.439Z,1.32
2022-09-20T07:24:13.445Z,1.32
2022-09-20T07:25:16.115Z,1.32
2022-09-20T07:26:51.164Z,1.32
2022-09-20T07:27:57.620Z,1.32
2022-09-20T07:29:00.814Z,1.32
2022-09-20T07:30:35.890Z,1.32
2022-09-20T07:31:39.079Z,1.32
2022-09-20T07:32:42.316Z,1.47
2022-09-20T07:34:17.068Z,1.47
2022-09-20T07:35:20.228Z,1.47
2022-09-20T07:36:22.935Z,1.47
2022-09-20T07:38:03.254Z,1.47
2022-09-20T07:39:06.510Z,1.755
2022-09-20T07:40:09.870Z,1.755
2022-09-20T07:41:44.970Z,1.905
2022-09-20T07:42:48.299Z,1.905
2022-09-20T07:43:51.393Z,1.905
2022-09-20T07:45:27.025Z,2.055
2022-09-20T07:46:30.399Z,1.905
2022-09-20T07:47:33.218Z,1.755
2022-09-20T07:49:08.427Z,1.32
2022-09-20T07:50:11.673Z,1.32
2022-09-20T07:51:19.983Z,1.17
2022-09-20T07:52:54.966Z,1.32
2022-09-20T07:53:57.881Z,1.17
2022-09-20T07:55:00.827Z,1.17
2022-09-20T07:56:35.319Z,1.32
2022-09-20T07:57:38.418Z,1.32
2022-09-20T07:58:41.582Z,1.32
2022-09-20T08:00:39.778Z,1.47
2022-09-20T08:01:43.215Z,1.755
2022-09-20T08:02:46.805Z,1.755
2022-09-20T08:04:21.569Z,1.905
2022-09-20T08:05:24.605Z,1.905
2022-09-20T08:06:27.669Z,1.905
2022-09-20T08:08:02.669Z,1.755
2022-09-20T08:09:10.250Z,1.755
2022-09-20T08:10:13.929Z,1.755
2022-09-20T08:11:50.937Z,1.755
2022-09-20T08:14:24.892Z,1.47
2022-09-20T08:15:34.229Z,1.755
2022-09-20T08:17:09.766Z,1.905
2022-09-20T08:18:12.804Z,1.905
2022-09-20T08:19:15.925Z,1.905
2022-09-20T08:20:51.391Z,1.905
2022-09-20T08:21:54.586Z,2.055
2022-09-20T08:23:29.698Z,1.905
2022-09-20T08:25:04.785Z,1.755
2022-09-20T08:26:07.845Z,1.755
2022-09-20T08:27:11.025Z,1.755
2022-09-20T08:28:45.927Z,1.905
2022-09-20T08:29:48.965Z,1.905
2022-09-20T08:30:56.133Z,1.905
2022-09-20T08:32:31.718Z,2.055
2022-09-20T08:33:34.743Z,2.19
2022-09-20T08:34:37.731Z,2.19
2022-09-20T08:36:14.874Z,2.19
2022-09-20T08:37:17.695Z,2.19
2022-09-20T08:40:21.182Z,2.34
2022-09-20T08:41:56.718Z,2.19
2022-09-20T08:43:11.287Z,2.19
2022-09-20T08:44:14.392Z,2.34
2022-09-20T08:46:05.689Z,2.19
2022-09-20T08:47:09.160Z,2.34
2022-09-20T08:48:15.883Z,2.49
2022-09-20T08:49:56.959Z,2.055
2022-09-20T08:51:05.389Z,2.19
2022-09-20T08:52:16.263Z,2.19
2022-09-20T08:53:54.979Z,2.64
2022-09-20T08:55:01.289Z,2.79
2022-09-20T08:56:05.624Z,2.925
2022-09-20T08:57:40.423Z,2.79
2022-09-20T08:58:43.538Z,2.49
2022-09-20T08:59:46.551Z,2.19
2022-09-20T09:00:40.634Z,2.19
2022-09-20T09:01:44.107Z,2.34
2022-09-20T09:02:47.218Z,2.34
2022-09-20T09:04:22.208Z,2.34
2022-09-20T09:05:25.140Z,2.34
2022-09-20T09:06:35.646Z,2.34
2022-09-20T09:08:10.832Z,2.49
2022-09-20T09:09:14.023Z,2.34
2022-09-20T09:10:17.114Z,2.34
2022-09-20T09:12:03.151Z,2.49
2022-09-20T09:13:11.580Z,2.64
2022-09-20T09:14:14.491Z,2.64
2022-09-20T09:15:49.306Z,2.49
2022-09-20T09:17:02.048Z,2.925
2022-09-20T09:18:05.291Z,2.49
2022-09-20T09:19:51.078Z,2.49
2022-09-20T09:20:54.525Z,2.49
2022-09-20T09:21:57.736Z,2.64
2022-09-20T09:23:32.972Z,2.79
2022-09-20T09:24:35.827Z,2.925
2022-09-20T09:25:38.884Z,2.79
2022-09-20T09:27:14.003Z,2.79
2022-09-20T09:28:17.074Z,2.79
2022-09-20T09:29:19.977Z,2.925
2022-09-20T09:30:55.043Z,2.925
2022-09-20T09:31:58.782Z,2.79
2022-09-20T09:33:01.869Z,2.64
2022-09-20T09:34:36.923Z,2.79
2022-09-20T09:35:40.279Z,2.64
2022-09-20T09:36:43.243Z,2.49
2022-09-20T09:38:18.219Z,2.49
2022-09-20T09:39:21.565Z,2.64
2022-09-20T09:40:25.428Z,2.64
2022-09-20T09:42:00.608Z,2.64
2022-09-20T09:43:03.765Z,2.79
2022-09-20T09:44:07.069Z,2.79
2022-09-20T09:45:43.023Z,2.79
2022-09-20T09:46:46.451Z,2.79
2022-09-20T09:47:49.604Z,2.79
2022-09-20T09:49:28.937Z,2.79
2022-09-20T09:50:37.996Z,2.64
2022-09-20T09:51:40.817Z,2.64
2022-09-20T09:53:16.008Z,2.64
2022-09-20T09:54:19.264Z,2.64
2022-09-20T09:55:25.867Z,2.64
2022-09-20T09:57:00.920Z,2.49
2022-09-20T09:58:04.268Z,2.34
2022-09-20T09:59:07.405Z,2.19
2022-09-20T10:00:48.491Z,2.055
2022-09-20T10:01:56.566Z,3.075
2022-09-20T10:02:59.794Z,3.075
2022-09-20T10:04:35.070Z,3.075
2022-09-20T10:05:38.124Z,3.075
2022-09-20T10:06:41.336Z,2.925
2022-09-20T10:08:16.578Z,3.075
2022-09-20T10:09:19.527Z,3.075
2022-09-20T10:10:22.702Z,3.225
2022-09-20T10:11:57.633Z,3.075
2022-09-20T10:13:00.466Z,3.075
2022-09-20T10:14:08.736Z,3.075
2022-09-20T10:15:43.961Z,3.51
2022-09-20T10:16:47.433Z,3.225
2022-09-20T10:17:50.371Z,3.225
2022-09-20T10:19:28.424Z,3.225
2022-09-20T10:20:31.388Z,3.51
2022-09-20T10:21:34.363Z,3.225
2022-09-20T10:24:19.421Z,3.51
2022-09-20T10:25:22.473Z,2.34
2022-09-20T10:26:25.752Z,3.075
2022-09-20T10:28:00.948Z,3.075
2022-09-20T10:29:03.972Z,3.075
2022-09-20T10:30:07.388Z,3.51
2022-09-20T10:31:48.618Z,3.81
2022-09-20T10:32:51.637Z,3.81
2022-09-20T10:33:54.657Z,3.81
2022-09-20T10:35:29.525Z,3.96
2022-09-20T10:36:32.530Z,3.96
2022-09-20T10:37:35.522Z,4.095
2022-09-20T10:39:10.291Z,3.96
2022-09-20T10:40:13.770Z,4.095
2022-09-20T10:41:16.789Z,3.81
2022-09-20T10:42:51.624Z,2.49
2022-09-20T10:43:54.755Z,2.055
2022-09-20T10:44:57.886Z,1.755
2022-09-20T10:47:40.878Z,1.02
2022-09-20T10:48:43.845Z,0.885
2022-09-20T10:49:50.562Z,1.02
2022-09-20T10:51:26.004Z,0.885
2022-09-20T10:52:28.909Z,1.02
2022-09-20T10:53:31.955Z,0.885
2022-09-20T10:55:07.109Z,1.02
2022-09-20T10:56:09.971Z,0.885
2022-09-20T10:57:12.977Z,1.02
2022-09-20T10:58:54.682Z,1.02
2022-09-20T10:59:57.719Z,1.02
2022-09-20T11:00:41.585Z,1.17
2022-09-20T11:01:45.525Z,1.17
2022-09-20T11:02:48.948Z,1.32
2022-09-20T11:04:24.116Z,1.47
2022-09-20T11:05:27.402Z,1.47
2022-09-20T11:06:30.844Z,1.755
2022-09-20T11:08:05.878Z,1.905
2022-09-20T11:09:11.833Z,2.055
2022-09-20T11:10:17.026Z,2.055
2022-09-20T11:11:52.158Z,2.19
2022-09-20T11:12:55.265Z,2.34
2022-09-20T11:13:58.255Z,2.34
2022-09-20T11:15:33.175Z,2.34
2022-09-20T11:16:36.757Z,2.49
2022-09-20T11:17:39.947Z,2.79
2022-09-20T11:19:14.956Z,2.79
2022-09-20T11:20:24.681Z,3.81
2022-09-20T11:21:28.023Z,3.225
2022-09-20T11:23:03.170Z,3.66
2022-09-20T11:24:06.309Z,3.225
2022-09-20T11:25:09.798Z,2.925
2022-09-20T11:26:45.078Z,2.49
2022-09-20T11:27:48.075Z,1.47
2022-09-20T11:28:51.190Z,1.47
2022-09-20T11:30:26.117Z,1.755
2022-09-20T11:31:29.272Z,1.47
2022-09-20T11:32:36.309Z,1.32
2022-09-20T11:34:11.188Z,0.735
2022-09-20T11:35:14.215Z,0.585
2022-09-20T11:36:17.149Z,0.435
2022-09-20T11:37:52.575Z,0.435
2022-09-20T11:38:59.312Z,0.435
2022-09-20T11:40:02.557Z,0.585
2022-09-20T11:41:37.636Z,0.435
2022-09-20T11:42:40.720Z,0.585
2022-09-20T11:43:43.757Z,0.585
2022-09-20T11:45:18.558Z,0.735
2022-09-20T11:46:22.016Z,0.885
2022-09-20T11:47:59.386Z,1.02
2022-09-20T11:49:34.762Z,1.17
2022-09-20T11:50:37.628Z,1.17
2022-09-20T11:51:40.571Z,1.32
2022-09-20T11:53:15.643Z,1.32
2022-09-20T11:54:18.790Z,1.32
2022-09-20T11:55:21.851Z,1.17
2022-09-20T11:56:56.615Z,1.32
2022-09-20T11:57:59.803Z,1.32
2022-09-20T11:59:02.783Z,1.47
2022-09-20T12:00:40.505Z,1.755
2022-09-20T12:01:48.724Z,1.905
2022-09-20T12:02:53.179Z,1.905
2022-09-20T12:04:57.750Z,2.19
2022-09-20T12:06:00.847Z,2.19
2022-09-20T12:07:08.853Z,2.19
2022-09-20T12:08:46.311Z,2.055
2022-09-20T12:09:49.380Z,1.905
2022-09-20T12:10:52.471Z,1.755
2022-09-20T12:12:27.354Z,1.32
2022-09-20T12:13:30.273Z,1.17
2022-09-20T12:14:33.554Z,1.17
2022-09-20T12:16:08.611Z,1.17
2022-09-20T12:17:12.013Z,1.17
2022-09-20T12:18:20.555Z,1.17
2022-09-20T12:19:55.337Z,1.32
2022-09-20T12:20:58.284Z,1.32
2022-09-20T12:22:06.890Z,1.32
2022-09-20T12:23:41.824Z,1.755
2022-09-20T12:24:50.985Z,1.755
2022-09-20T12:25:53.915Z,1.905
2022-09-20T12:27:29.140Z,1.905
2022-09-20T12:28:32.433Z,2.19
2022-09-20T12:29:35.768Z,2.34
2022-09-20T12:31:11.011Z,2.34
2022-09-20T12:32:14.446Z,2.64
2022-09-20T12:33:17.309Z,2.64
2022-09-20T12:34:52.513Z,2.64
2022-09-20T12:35:55.688Z,2.79
2022-09-20T12:36:58.589Z,2.64
2022-09-20T12:38:33.665Z,2.64
2022-09-20T12:39:47.451Z,2.49
2022-09-20T12:40:50.847Z,2.49
2022-09-20T12:42:34.659Z,2.49
2022-09-20T12:43:37.621Z,2.49
2022-09-20T12:44:40.591Z,2.49
2022-09-20T12:46:24.130Z,2.49
2022-09-20T12:47:27.559Z,2.49
2022-09-20T12:48:31.989Z,2.34
2022-09-20T12:50:08.076Z,2.055
2022-09-20T12:51:11.621Z,1.905
2022-09-20T12:52:15.205Z,1.47
2022-09-20T12:53:50.736Z,1.02
2022-09-20T12:54:55.648Z,1.02
2022-09-20T12:56:01.726Z,0.885
2022-09-20T12:57:37.647Z,0.585
2022-09-20T12:58:41.028Z,0.585
2022-09-20T12:59:44.455Z,0.435
2022-09-20T13:00:41.656Z,0.435
2022-09-20T13:01:45.464Z,0.435
2022-09-20T13:02:48.820Z,0.435
2022-09-20T13:04:23.927Z,0
2022-09-20T13:05:27.125Z,0
2022-09-20T13:06:30.187Z,0
2022-09-20T13:08:11.769Z,0
2022-09-20T13:09:15.108Z,0
2022-09-20T13:10:18.161Z,0.435
2022-09-20T13:11:53.173Z,0.435
2022-09-20T13:13:00.328Z,0.435
2022-09-20T13:14:03.473Z,0.735
2022-09-20T13:15:38.561Z,1.02
2022-09-20T13:16:42.202Z,1.02
2022-09-20T13:17:45.221Z,1.17
2022-09-20T13:19:20.421Z,1.47
2022-09-20T13:20:23.391Z,1.47
2022-09-20T13:21:26.538Z,1.755
2022-09-20T13:23:06.160Z,1.755
2022-09-20T13:24:09.301Z,1.905
2022-09-20T13:25:12.244Z,1.905
2022-09-20T13:26:47.398Z,1.905
2022-09-20T13:27:50.471Z,2.055
2022-09-20T13:28:53.745Z,1.905
2022-09-20T13:30:28.992Z,1.905
2022-09-20T13:31:32.495Z,2.055
2022-09-20T13:32:35.550Z,1.905
2022-09-20T13:34:10.784Z,2.19
2022-09-20T13:35:13.839Z,2.19
2022-09-20T13:36:16.753Z,2.79
2022-09-20T13:37:56.217Z,3.51
2022-09-20T13:38:59.552Z,3.66
2022-09-20T13:40:02.926Z,2.49
2022-09-20T13:41:38.068Z,3.51
2022-09-20T13:42:42.057Z,2.79
2022-09-20T13:43:53.095Z,2.64
2022-09-20T13:45:31.908Z,2.49
2022-09-20T13:46:37.129Z,3.075
2022-09-20T13:47:40.240Z,2.49
2022-09-20T13:49:15.309Z,2.925
2022-09-20T13:50:18.848Z,2.79
2022-09-20T13:51:22.195Z,2.64
2022-09-20T13:52:57.244Z,3.075
2022-09-20T13:54:10.270Z,2.49
2022-09-20T13:55:13.401Z,2.64
2022-09-20T13:56:48.534Z,3.075
2022-09-20T13:57:51.664Z,2.49
2022-09-20T13:58:54.840Z,2.19
2022-09-20T14:00:40.112Z,3.075
2022-09-20T14:01:43.499Z,3.225
2022-09-20T14:02:46.859Z,3.225
2022-09-20T14:04:21.830Z,3.225
2022-09-20T14:05:25.016Z,3.51
2022-09-20T14:06:28.298Z,2.79
2022-09-20T14:08:03.420Z,2.19
2022-09-20T14:09:10.745Z,3.225
2022-09-20T14:10:14.605Z,2.925
2022-09-20T14:11:49.441Z,2.79
2022-09-20T14:12:52.420Z,2.49
2022-09-20T14:13:55.592Z,2.34
2022-09-20T14:15:36.516Z,2.34
2022-09-20T14:16:39.616Z,2.055
2022-09-20T14:17:43.457Z,2.34
2022-09-20T14:19:18.888Z,1.905
2022-09-20T14:20:22.229Z,1.47
2022-09-20T14:21:25.405Z,2.19
2022-09-20T14:23:04.797Z,1.905
2022-09-20T14:24:08.088Z,2.34
2022-09-20T14:25:11.115Z,2.49
2022-09-20T14:26:46.350Z,2.49
2022-09-20T14:27:49.356Z,2.64
2022-09-20T14:28:57.220Z,2.34
2022-09-20T14:30:32.821Z,2.34
2022-09-20T14:31:36.771Z,2.34
2022-09-20T14:32:40.233Z,2.34
2022-09-20T14:34:18.373Z,2.055
2022-09-20T14:35:21.429Z,2.19
2022-09-20T14:36:24.736Z,2.055
2022-09-20T14:37:59.929Z,2.055
2022-09-20T14:39:03.254Z,2.055
2022-09-20T14:40:13.274Z,2.055
2022-09-20T14:41:48.493Z,2.055
2022-09-20T14:42:51.727Z,2.055
2022-09-20T14:43:54.893Z,1.905
2022-09-20T14:45:30.268Z,2.055
2022-09-20T14:46:33.500Z,2.055
2022-09-20T14:47:36.620Z,1.905
2022-09-20T14:49:19.059Z,2.055
2022-09-20T14:50:22.227Z,1.905
2022-09-20T14:51:25.305Z,2.055
2022-09-20T14:53:00.460Z,1.905
2022-09-20T14:54:03.854Z,1.905
2022-09-20T14:55:07.249Z,1.905
2022-09-20T14:56:46.419Z,1.755
2022-09-20T14:57:49.501Z,1.755
2022-09-20T14:58:52.662Z,1.755
2022-09-20T15:00:40.730Z,1.755
2022-09-20T15:01:43.814Z,1.755
2022-09-20T15:02:47.214Z,1.755
2022-09-20T15:04:22.372Z,1.755
2022-09-20T15:05:25.434Z,1.755
2022-09-20T15:06:28.666Z,1.755
2022-09-20T15:08:03.485Z,1.755
2022-09-20T15:09:12.372Z,1.755
2022-09-20T15:10:15.943Z,1.755
2022-09-20T15:11:50.903Z,1.47
2022-09-20T15:12:54.186Z,1.47
2022-09-20T15:13:57.436Z,1.47
2022-09-20T15:15:39.837Z,1.47
2022-09-20T15:16:43.581Z,1.47
2022-09-20T15:17:46.534Z,1.47
2022-09-20T15:19:21.710Z,1.32
2022-09-20T15:20:29.978Z,1.32
2022-09-20T15:21:33.144Z,1.32
2022-09-20T15:23:08.332Z,1.17
2022-09-20T15:24:11.407Z,1.17
2022-09-20T15:25:14.679Z,1.17
2022-09-20T15:26:50.026Z,1.32
2022-09-20T15:27:57.049Z,1.17
2022-09-20T15:29:00.089Z,1.17
2022-09-20T15:30:34.941Z,1.17
2022-09-20T15:31:38.747Z,1.17
2022-09-20T15:32:43.868Z,1.17
2022-09-20T15:34:18.930Z,1.17
2022-09-20T15:35:22.185Z,1.02
2022-09-20T15:36:25.359Z,1.17
2022-09-20T15:38:00.469Z,1.02
2022-09-20T15:39:03.494Z,1.17
2022-09-20T15:40:06.950Z,1.17
2022-09-20T15:41:48.150Z,1.17
2022-09-20T15:42:51.317Z,1.17
2022-09-20T15:43:54.550Z,1.02
2022-09-20T15:45:29.834Z,1.02
2022-09-20T15:46:33.077Z,0.885
2022-09-20T15:47:38.923Z,1.02
2022-09-20T15:49:13.938Z,1.02
2022-09-20T15:50:17.164Z,0.885
2022-09-20T15:51:20.295Z,1.02
2022-09-20T15:52:59.750Z,0.885
2022-09-20T15:54:03.038Z,0.885
2022-09-20T15:55:06.019Z,0.885
2022-09-20T15:56:41.237Z,0.885
2022-09-20T15:57:44.384Z,1.02
2022-09-20T15:58:52.835Z,0.885
2022-09-20T16:00:40.337Z,0.885
2022-09-20T16:01:43.879Z,1.02
2022-09-20T16:02:46.955Z,0.885
2022-09-20T16:04:21.713Z,0.885
2022-09-20T16:06:15.604Z,0.885
2022-09-20T16:07:18.866Z,0.885
2022-09-20T16:08:21.976Z,0.885
2022-09-20T16:09:57.387Z,0.885
2022-09-20T16:11:00.434Z,0.885
2022-09-20T16:12:03.581Z,0.735
2022-09-20T16:13:38.622Z,0.585
2022-09-20T16:14:41.733Z,0.585
2022-09-20T16:15:44.866Z,0.585
2022-09-20T16:17:20.171Z,0.585
2022-09-20T16:18:23.269Z,0.585
2022-09-20T16:19:26.789Z,0.585
2022-09-20T16:21:01.648Z,0.585
2022-09-20T16:22:09.713Z,0.435
2022-09-20T16:23:12.758Z,0.435
2022-09-20T16:24:47.937Z,0.435
2022-09-20T16:25:51.120Z,0.435
2022-09-20T16:26:54.086Z,0.435
2022-09-20T16:28:29.244Z,0.435
2022-09-20T16:29:32.226Z,0.435
2022-09-20T16:30:35.412Z,0.435
2022-09-20T16:32:10.942Z,0.435
2022-09-20T16:33:13.971Z,0.435
2022-09-20T16:34:16.841Z,0.435
2022-09-20T16:35:51.938Z,0.435
2022-09-20T16:36:56.071Z,0.435
2022-09-20T16:37:59.199Z,0.435
2022-09-20T16:39:34.647Z,0.435
2022-09-20T16:40:38.260Z,0.435
2022-09-20T16:41:41.502Z,0.435
2022-09-20T16:43:20.746Z,0.435
2022-09-20T16:44:23.953Z,0.435
2022-09-20T16:45:26.881Z,0.435
2022-09-20T16:47:02.169Z,0
2022-09-20T16:48:08.413Z,0.435
2022-09-20T16:49:12.049Z,0.435
2022-09-20T16:50:47.528Z,0
2022-09-20T16:51:50.737Z,0.435
2022-09-20T16:52:53.865Z,0
2022-09-20T16:54:31.901Z,0
2022-09-20T16:55:35.279Z,0
2022-09-20T16:56:41.723Z,0
2022-09-20T16:58:16.713Z,0
2022-09-20T16:59:19.872Z,0
2022-09-20T17:00:41.049Z,0
2022-09-20T17:01:44.249Z,0
2022-09-20T17:02:53.323Z,0
2022-09-20T17:04:28.882Z,0
2022-09-20T17:05:32.186Z,0
2022-09-20T17:06:35.254Z,0
2022-09-20T17:08:10.609Z,0